ADDS METAR Data INFO
IDs: Format: Raw Decoded Include TAF

Data at: 1049 UTC 24 Nov 2017

KDHT 240953Z AUTO 22006KT 10SM CLR 02/M01 A2989 RMK AO2 SLP092 T00221011
KDHT 240853Z AUTO 20006KT 10SM CLR 03/M01 A2991 RMK AO2 SLP096 T00331006 56023
KDHT 240753Z AUTO 22007KT 10SM CLR 04/M01 A2993 RMK AO2 SLP102 T00441006
KDHT 240653Z AUTO 24004KT 10SM CLR 07/00 A2997 RMK AO2 SLP112 T00720000
KDHT 240553Z AUTO 24007KT 10SM CLR 07/00 A2999 RMK AO2 SLP121 T00670000 10139 20067 402440039 56019
KDHT 240453Z AUTO 24009KT 10SM CLR 08/00 A3001 RMK AO2 SLP131 T00830000
KDHT 240353Z AUTO 24008KT 10SM CLR 09/01 A3003 RMK AO2 SLP141 T00890011
KDHT 240253Z AUTO 23008KT 10SM CLR 08/02 A3005 RMK AO2 SLP157 T00830017 58006
KDHT 240153Z AUTO 22007KT 10SM CLR 09/02 A3006 RMK AO2 SLP163 T00940017
KDHT 240053Z AUTO 20007KT 10SM CLR 10/01 A3007 RMK AO2 SLP166 T01000011
KDHT 232353Z AUTO 19007KT 10SM CLR 14/02 A3007 RMK AO2 SLP162 T01390022 10244 20139 56007
KDHT 232253Z AUTO 20008KT 10SM CLR 21/03 A3007 RMK AO2 SLP153 T02060033
KDHT 232153Z AUTO 21007KT 10SM CLR 23/03 A3008 RMK AO2 SLP153 T02280028
KDHT 232053Z AUTO 25005KT 10SM CLR 24/03 A3009 RMK AO2 SLP158 T02390028 56030
KDHT 231953Z AUTO VRB04KT 10SM CLR 23/03 A3013 RMK AO2 SLP170 T02280033
KDHT 231853Z AUTO 00000KT 10SM CLR 23/03 A3016 RMK AO2 SLP178 T02280033
KDHT 231753Z AUTO 36006KT 10SM CLR 22/04 A3019 RMK AO2 SLP191 T02170039 10217 20056 58014
KDHT 231653Z AUTO 35008KT 10SM CLR 18/04 A3021 RMK AO2 SLP200 T01830039
KDHT 231553Z AUTO 34005KT 10SM CLR 15/03 A3023 RMK AO2 SLP211 T01500033
KDHT 231453Z AUTO 29006KT 10SM CLR 10/01 A3024 RMK AO2 SLP222 T01000011 53006
KDHT 231353Z AUTO 31008KT 10SM CLR 07/M01 A3023 RMK AO2 SLP226 T00721006
KDHT 231253Z AUTO 34009KT 10SM CLR 07/M01 A3022 RMK AO2 SLP221 T00671011
KDHT 231153Z AUTO 33007KT 10SM CLR 06/M01 A3022 RMK AO2 SLP215 T00561011 10078 20039 53001
KDHT 231053Z AUTO 30009KT 10SM CLR 06/M02 A3021 RMK AO2 SLP203 T00611017
KDHT 230953Z AUTO 26005KT 10SM CLR 05/M01 A3021 RMK AO2 SLP206 T00501011
KDHT 230853Z AUTO 28009KT 10SM CLR 05/M01 A3021 RMK AO2 SLP205 T00501011 55003
KDHT 230753Z AUTO 29009KT 10SM CLR 06/M01 A3021 RMK AO2 SLP204 T00611006
KDHT 230653Z AUTO 29009KT 10SM CLR 07/M01 A3022 RMK AO2 SLP209 T00671006
KDHT 230553Z AUTO 29007KT 10SM CLR 08/M01 A3022 RMK AO2 SLP213 T00781006 10128 20056 402061022 58006
KDHT 230453Z AUTO 30008KT 10SM CLR 09/M01 A3024 RMK AO2 SLP218 T00891006
KDHT 230353Z AUTO 29008KT 10SM CLR 09/M01 A3025 RMK AO2 SLP228 T00891011
KDHT 230253Z AUTO 28006KT 10SM CLR 09/M01 A3024 RMK AO2 SLP233 T00891006 51008
KDHT 230153Z AUTO 25006KT 10SM CLR 07/M01 A3023 RMK AO2 SLP239 T00671011
KDHT 230053Z AUTO 20006KT 10SM CLR 08/M01 A3023 RMK AO2 SLP232 T00831011
KDHT 222353Z AUTO 17006KT 10SM CLR 13/M01 A3022 RMK AO2 SLP222 T01331006 10206 20133 56002
KDHT 222253Z AUTO 18003KT 10SM CLR 19/M02 A3022 RMK AO2 SLP216 T01891017